sensor_id;sensor_type;location;lat;lon;timestamp;P1;durP1;ratioP1;P2;durP2;ratioP2
13951;SDS011;39535;52.192;9.886;2022-10-15T00:01:16;5.67;;;5.13;;
13951;SDS011;39535;52.192;9.886;2022-10-15T00:03:43;8.83;;;5.40;;
13951;SDS011;39535;52.192;9.886;2022-10-15T00:06:11;6.70;;;6.20;;
13951;SDS011;39535;52.192;9.886;2022-10-15T00:08:40;5.53;;;5.13;;
13951;SDS011;39535;52.192;9.886;2022-10-15T00:11:09;6.17;;;5.67;;
13951;SDS011;39535;52.192;9.886;2022-10-15T00:13:37;9.67;;;4.30;;
13951;SDS011;39535;52.192;9.886;2022-10-15T00:16:07;9.53;;;3.90;;
13951;SDS011;39535;52.192;9.886;2022-10-15T00:18:36;5.13;;;4.80;;
13951;SDS011;39535;52.192;9.886;2022-10-15T00:21:04;6.40;;;5.90;;
13951;SDS011;39535;52.192;9.886;2022-10-15T00:23:31;6.07;;;5.57;;
13951;SDS011;39535;52.192;9.886;2022-10-15T00:26:02;5.87;;;5.37;;
13951;SDS011;39535;52.192;9.886;2022-10-15T00:28:30;6.57;;;5.07;;
13951;SDS011;39535;52.192;9.886;2022-10-15T00:31:00;5.07;;;4.57;;
13951;SDS011;39535;52.192;9.886;2022-10-15T00:33:28;5.67;;;5.10;;
13951;SDS011;39535;52.192;9.886;2022-10-15T00:35:59;6.33;;;4.40;;
13951;SDS011;39535;52.192;9.886;2022-10-15T00:38:27;5.97;;;5.37;;
13951;SDS011;39535;52.192;9.886;2022-10-15T00:40:54;8.13;;;5.07;;
13951;SDS011;39535;52.192;9.886;2022-10-15T00:43:34;5.73;;;5.20;;
13951;SDS011;39535;52.192;9.886;2022-10-15T00:46:05;10.13;;;5.10;;
13951;SDS011;39535;52.192;9.886;2022-10-15T00:48:39;7.00;;;4.10;;
13951;SDS011;39535;52.192;9.886;2022-10-15T00:51:06;5.30;;;4.80;;
13951;SDS011;39535;52.192;9.886;2022-10-15T00:53:33;4.77;;;4.47;;
13951;SDS011;39535;52.192;9.886;2022-10-15T00:56:00;6.17;;;5.67;;
13951;SDS011;39535;52.192;9.886;2022-10-15T00:58:28;6.63;;;6.13;;
13951;SDS011;39535;52.192;9.886;2022-10-15T01:00:57;6.17;;;5.77;;
13951;SDS011;39535;52.192;9.886;2022-10-15T01:03:24;5.87;;;5.47;;
13951;SDS011;39535;52.192;9.886;2022-10-15T01:05:52;5.70;;;5.23;;
13951;SDS011;39535;52.192;9.886;2022-10-15T01:08:19;7.00;;;6.50;;
13951;SDS011;39535;52.192;9.886;2022-10-15T01:10:47;6.73;;;6.03;;
13951;SDS011;39535;52.192;9.886;2022-10-15T01:13:20;6.50;;;6.10;;
13951;SDS011;39535;52.192;9.886;2022-10-15T01:15:56;6.20;;;5.70;;
13951;SDS011;39535;52.192;9.886;2022-10-15T01:18:27;6.97;;;5.90;;
13951;SDS011;39535;52.192;9.886;2022-10-15T01:21:04;6.27;;;5.77;;
13951;SDS011;39535;52.192;9.886;2022-10-15T01:29:45;7.80;;;5.90;;
13951;SDS011;39535;52.192;9.886;2022-10-15T01:32:22;6.33;;;5.83;;
13951;SDS011;39535;52.192;9.886;2022-10-15T01:34:52;6.83;;;6.33;;
13951;SDS011;39535;52.192;9.886;2022-10-15T01:37:26;7.30;;;5.90;;
13951;SDS011;39535;52.192;9.886;2022-10-15T01:40:04;5.20;;;4.70;;
13951;SDS011;39535;52.192;9.886;2022-10-15T01:42:36;6.27;;;4.83;;
13951;SDS011;39535;52.192;9.886;2022-10-15T01:45:09;5.80;;;5.30;;
13951;SDS011;39535;52.192;9.886;2022-10-15T01:47:45;5.13;;;4.27;;
13951;SDS011;39535;52.192;9.886;2022-10-15T01:50:15;5.63;;;4.07;;
13951;SDS011;39535;52.192;9.886;2022-10-15T01:52:44;4.70;;;3.57;;
13951;SDS011;39535;52.192;9.886;2022-10-15T01:55:11;9.90;;;4.70;;
13951;SDS011;39535;52.192;9.886;2022-10-15T01:57:41;4.20;;;3.17;;
13951;SDS011;39535;52.192;9.886;2022-10-15T02:00:10;15.17;;;3.30;;
13951;SDS011;39535;52.192;9.886;2022-10-15T02:02:37;6.37;;;3.27;;
13951;SDS011;39535;52.192;9.886;2022-10-15T02:05:05;6.70;;;4.43;;
13951;SDS011;39535;52.192;9.886;2022-10-15T02:07:36;8.57;;;3.27;;
13951;SDS011;39535;52.192;9.886;2022-10-15T02:10:09;8.20;;;3.63;;
13951;SDS011;39535;52.192;9.886;2022-10-15T02:15:33;5.07;;;4.40;;
13951;SDS011;39535;52.192;9.886;2022-10-15T02:18:04;6.17;;;3.83;;
13951;SDS011;39535;52.192;9.886;2022-10-15T02:20:38;7.07;;;4.17;;
13951;SDS011;39535;52.192;9.886;2022-10-15T02:23:11;5.50;;;4.40;;
13951;SDS011;39535;52.192;9.886;2022-10-15T02:25:43;4.47;;;4.07;;
13951;SDS011;39535;52.192;9.886;2022-10-15T02:28:11;4.97;;;4.57;;
13951;SDS011;39535;52.192;9.886;2022-10-15T02:30:40;6.80;;;5.07;;
13951;SDS011;39535;52.192;9.886;2022-10-15T02:33:10;7.67;;;6.93;;
13951;SDS011;39535;52.192;9.886;2022-10-15T02:35:39;11.73;;;6.90;;
13951;SDS011;39535;52.192;9.886;2022-10-15T02:38:07;6.60;;;5.97;;
13951;SDS011;39535;52.192;9.886;2022-10-15T02:40:38;8.70;;;6.10;;
13951;SDS011;39535;52.192;9.886;2022-10-15T02:43:09;5.93;;;5.43;;
13951;SDS011;39535;52.192;9.886;2022-10-15T02:45:38;10.23;;;6.00;;
13951;SDS011;39535;52.192;9.886;2022-10-15T02:48:05;10.23;;;6.50;;
13951;SDS011;39535;52.192;9.886;2022-10-15T02:50:32;11.03;;;7.03;;
13951;SDS011;39535;52.192;9.886;2022-10-15T02:53:00;8.27;;;7.30;;
13951;SDS011;39535;52.192;9.886;2022-10-15T02:55:26;9.10;;;8.30;;
13951;SDS011;39535;52.192;9.886;2022-10-15T02:57:53;8.97;;;8.07;;
13951;SDS011;39535;52.192;9.886;2022-10-15T03:00:19;9.73;;;9.03;;
13951;SDS011;39535;52.192;9.886;2022-10-15T03:02:46;10.27;;;9.43;;
13951;SDS011;39535;52.192;9.886;2022-10-15T03:05:12;9.53;;;8.83;;
13951;SDS011;39535;52.192;9.886;2022-10-15T03:07:39;12.23;;;9.80;;
13951;SDS011;39535;52.192;9.886;2022-10-15T03:10:07;9.90;;;9.00;;
13951;SDS011;39535;52.192;9.886;2022-10-15T03:12:33;10.47;;;9.43;;
13951;SDS011;39535;52.192;9.886;2022-10-15T03:15:00;12.93;;;8.20;;
13951;SDS011;39535;52.192;9.886;2022-10-15T03:17:27;8.93;;;8.13;;
13951;SDS011;39535;52.192;9.886;2022-10-15T03:19:53;8.53;;;7.60;;
13951;SDS011;39535;52.192;9.886;2022-10-15T03:22:19;9.00;;;8.07;;
13951;SDS011;39535;52.192;9.886;2022-10-15T03:24:46;8.27;;;7.43;;
13951;SDS011;39535;52.192;9.886;2022-10-15T03:27:14;7.93;;;7.17;;
13951;SDS011;39535;52.192;9.886;2022-10-15T03:29:40;12.20;;;8.20;;
13951;SDS011;39535;52.192;9.886;2022-10-15T03:32:06;9.27;;;8.47;;
13951;SDS011;39535;52.192;9.886;2022-10-15T03:34:33;10.30;;;8.37;;
13951;SDS011;39535;52.192;9.886;2022-10-15T03:36:59;8.00;;;7.30;;
13951;SDS011;39535;52.192;9.886;2022-10-15T03:39:26;8.83;;;8.03;;
13951;SDS011;39535;52.192;9.886;2022-10-15T03:41:52;8.00;;;7.20;;
13951;SDS011;39535;52.192;9.886;2022-10-15T03:44:20;9.30;;;8.30;;
13951;SDS011;39535;52.192;9.886;2022-10-15T03:46:47;11.53;;;9.43;;
13951;SDS011;39535;52.192;9.886;2022-10-15T03:49:13;10.50;;;9.57;;
13951;SDS011;39535;52.192;9.886;2022-10-15T03:51:40;11.23;;;10.23;;
13951;SDS011;39535;52.192;9.886;2022-10-15T03:54:06;10.10;;;9.10;;
13951;SDS011;39535;52.192;9.886;2022-10-15T03:56:33;13.50;;;8.93;;
13951;SDS011;39535;52.192;9.886;2022-10-15T03:58:59;10.20;;;9.40;;
13951;SDS011;39535;52.192;9.886;2022-10-15T04:01:27;11.13;;;9.50;;
13951;SDS011;39535;52.192;9.886;2022-10-15T04:03:53;12.30;;;10.13;;
13951;SDS011;39535;52.192;9.886;2022-10-15T04:06:20;11.77;;;9.60;;
13951;SDS011;39535;52.192;9.886;2022-10-15T04:08:46;10.03;;;9.27;;
13951;SDS011;39535;52.192;9.886;2022-10-15T04:11:12;11.00;;;9.90;;
13951;SDS011;39535;52.192;9.886;2022-10-15T04:13:39;10.30;;;9.27;;
13951;SDS011;39535;52.192;9.886;2022-10-15T04:16:05;10.07;;;9.07;;
13951;SDS011;39535;52.192;9.886;2022-10-15T04:18:33;9.03;;;7.93;;
13951;SDS011;39535;52.192;9.886;2022-10-15T04:21:00;9.80;;;8.77;;
13951;SDS011;39535;52.192;9.886;2022-10-15T04:23:26;9.03;;;8.13;;
13951;SDS011;39535;52.192;9.886;2022-10-15T04:25:53;8.57;;;7.87;;
13951;SDS011;39535;52.192;9.886;2022-10-15T04:28:23;10.30;;;7.17;;
13951;SDS011;39535;52.192;9.886;2022-10-15T04:30:50;11.23;;;8.90;;
13951;SDS011;39535;52.192;9.886;2022-10-15T04:33:16;10.37;;;7.97;;
13951;SDS011;39535;52.192;9.886;2022-10-15T04:35:44;7.97;;;7.30;;
13951;SDS011;39535;52.192;9.886;2022-10-15T04:38:10;10.03;;;7.87;;
13951;SDS011;39535;52.192;9.886;2022-10-15T04:40:37;9.93;;;8.83;;
13951;SDS011;39535;52.192;9.886;2022-10-15T04:43:05;9.20;;;7.93;;
13951;SDS011;39535;52.192;9.886;2022-10-15T04:45:31;10.80;;;8.07;;
13951;SDS011;39535;52.192;9.886;2022-10-15T04:47:58;11.23;;;7.83;;
13951;SDS011;39535;52.192;9.886;2022-10-15T04:50:24;8.80;;;7.83;;
13951;SDS011;39535;52.192;9.886;2022-10-15T04:52:52;9.90;;;8.97;;
13951;SDS011;39535;52.192;9.886;2022-10-15T04:55:18;13.23;;;9.00;;
13951;SDS011;39535;52.192;9.886;2022-10-15T04:57:45;8.77;;;7.90;;
13951;SDS011;39535;52.192;9.886;2022-10-15T05:00:11;13.10;;;8.33;;
13951;SDS011;39535;52.192;9.886;2022-10-15T05:02:40;8.90;;;8.10;;
13951;SDS011;39535;52.192;9.886;2022-10-15T05:05:07;11.00;;;8.93;;
13951;SDS011;39535;52.192;9.886;2022-10-15T05:07:33;15.00;;;10.00;;
13951;SDS011;39535;52.192;9.886;2022-10-15T05:10:01;12.30;;;10.10;;
13951;SDS011;39535;52.192;9.886;2022-10-15T05:12:28;12.67;;;11.37;;
13951;SDS011;39535;52.192;9.886;2022-10-15T05:14:54;11.53;;;10.53;;
13951;SDS011;39535;52.192;9.886;2022-10-15T05:17:21;12.10;;;10.40;;
13951;SDS011;39535;52.192;9.886;2022-10-15T05:19:47;14.13;;;11.70;;
13951;SDS011;39535;52.192;9.886;2022-10-15T05:22:14;12.80;;;11.03;;
13951;SDS011;39535;52.192;9.886;2022-10-15T05:24:40;13.07;;;10.73;;
13951;SDS011;39535;52.192;9.886;2022-10-15T05:27:08;21.10;;;10.97;;
13951;SDS011;39535;52.192;9.886;2022-10-15T05:29:34;13.73;;;10.93;;
13951;SDS011;39535;52.192;9.886;2022-10-15T05:32:02;14.30;;;11.07;;
13951;SDS011;39535;52.192;9.886;2022-10-15T05:34:29;15.60;;;10.87;;
13951;SDS011;39535;52.192;9.886;2022-10-15T05:36:55;11.43;;;10.33;;
13951;SDS011;39535;52.192;9.886;2022-10-15T05:39:21;11.13;;;9.93;;
13951;SDS011;39535;52.192;9.886;2022-10-15T05:41:48;11.83;;;10.47;;
13951;SDS011;39535;52.192;9.886;2022-10-15T05:44:20;13.77;;;12.43;;
13951;SDS011;39535;52.192;9.886;2022-10-15T05:46:50;12.37;;;11.27;;
13951;SDS011;39535;52.192;9.886;2022-10-15T05:49:16;12.87;;;11.43;;
13951;SDS011;39535;52.192;9.886;2022-10-15T05:51:44;18.10;;;12.60;;
13951;SDS011;39535;52.192;9.886;2022-10-15T05:54:10;15.73;;;11.87;;
13951;SDS011;39535;52.192;9.886;2022-10-15T05:56:36;14.90;;;12.93;;
13951;SDS011;39535;52.192;9.886;2022-10-15T05:59:03;23.60;;;11.63;;
13951;SDS011;39535;52.192;9.886;2022-10-15T06:01:31;20.73;;;13.03;;
13951;SDS011;39535;52.192;9.886;2022-10-15T06:03:57;17.00;;;12.20;;
13951;SDS011;39535;52.192;9.886;2022-10-15T06:06:24;14.13;;;12.83;;
13951;SDS011;39535;52.192;9.886;2022-10-15T06:08:51;14.83;;;13.53;;
13951;SDS011;39535;52.192;9.886;2022-10-15T06:11:18;14.40;;;12.83;;
13951;SDS011;39535;52.192;9.886;2022-10-15T06:13:45;17.70;;;14.50;;
13951;SDS011;39535;52.192;9.886;2022-10-15T06:16:12;19.67;;;13.33;;
13951;SDS011;39535;52.192;9.886;2022-10-15T06:18:41;19.37;;;14.27;;
13951;SDS011;39535;52.192;9.886;2022-10-15T06:21:08;14.73;;;13.10;;
13951;SDS011;39535;52.192;9.886;2022-10-15T06:23:36;15.40;;;13.63;;
13951;SDS011;39535;52.192;9.886;2022-10-15T06:26:02;15.13;;;12.63;;
13951;SDS011;39535;52.192;9.886;2022-10-15T06:28:30;14.13;;;12.47;;
13951;SDS011;39535;52.192;9.886;2022-10-15T06:30:57;19.93;;;11.47;;
13951;SDS011;39535;52.192;9.886;2022-10-15T06:33:24;14.40;;;11.13;;
13951;SDS011;39535;52.192;9.886;2022-10-15T06:35:51;13.57;;;12.17;;
13951;SDS011;39535;52.192;9.886;2022-10-15T06:38:18;14.00;;;12.60;;
13951;SDS011;39535;52.192;9.886;2022-10-15T06:40:44;15.40;;;12.83;;
13951;SDS011;39535;52.192;9.886;2022-10-15T06:43:11;15.37;;;13.43;;
13951;SDS011;39535;52.192;9.886;2022-10-15T06:45:38;15.27;;;13.73;;
13951;SDS011;39535;52.192;9.886;2022-10-15T06:48:06;16.03;;;14.07;;
13951;SDS011;39535;52.192;9.886;2022-10-15T06:50:33;13.40;;;12.10;;
13951;SDS011;39535;52.192;9.886;2022-10-15T06:53:02;13.83;;;12.53;;
13951;SDS011;39535;52.192;9.886;2022-10-15T06:55:30;16.03;;;14.40;;
13951;SDS011;39535;52.192;9.886;2022-10-15T06:57:56;16.20;;;14.80;;
13951;SDS011;39535;52.192;9.886;2022-10-15T07:00:23;15.77;;;14.27;;
13951;SDS011;39535;52.192;9.886;2022-10-15T07:02:50;15.50;;;13.90;;
13951;SDS011;39535;52.192;9.886;2022-10-15T07:05:17;14.57;;;13.27;;
13951;SDS011;39535;52.192;9.886;2022-10-15T07:07:49;14.80;;;12.40;;
13951;SDS011;39535;52.192;9.886;2022-10-15T07:10:18;14.50;;;13.10;;
13951;SDS011;39535;52.192;9.886;2022-10-15T07:12:44;15.70;;;13.17;;
13951;SDS011;39535;52.192;9.886;2022-10-15T07:15:11;16.97;;;14.37;;
13951;SDS011;39535;52.192;9.886;2022-10-15T07:17:38;15.60;;;14.10;;
13951;SDS011;39535;52.192;9.886;2022-10-15T07:20:05;15.00;;;13.40;;
13951;SDS011;39535;52.192;9.886;2022-10-15T07:22:32;14.87;;;13.37;;
13951;SDS011;39535;52.192;9.886;2022-10-15T07:24:59;16.73;;;13.57;;
13951;SDS011;39535;52.192;9.886;2022-10-15T07:27:27;15.40;;;14.10;;
13951;SDS011;39535;52.192;9.886;2022-10-15T07:29:53;16.73;;;15.23;;
13951;SDS011;39535;52.192;9.886;2022-10-15T07:32:19;16.03;;;14.40;;
13951;SDS011;39535;52.192;9.886;2022-10-15T07:34:46;16.60;;;15.17;;
13951;SDS011;39535;52.192;9.886;2022-10-15T07:37:13;18.03;;;15.37;;
13951;SDS011;39535;52.192;9.886;2022-10-15T07:39:39;15.70;;;14.50;;
13951;SDS011;39535;52.192;9.886;2022-10-15T07:42:05;16.20;;;13.40;;
13951;SDS011;39535;52.192;9.886;2022-10-15T07:44:33;15.80;;;14.50;;
13951;SDS011;39535;52.192;9.886;2022-10-15T07:47:00;16.10;;;14.50;;
13951;SDS011;39535;52.192;9.886;2022-10-15T07:49:26;14.63;;;13.30;;
13951;SDS011;39535;52.192;9.886;2022-10-15T07:51:52;16.70;;;14.80;;
13951;SDS011;39535;52.192;9.886;2022-10-15T07:54:19;13.50;;;12.30;;
13951;SDS011;39535;52.192;9.886;2022-10-15T07:56:45;16.50;;;15.20;;
13951;SDS011;39535;52.192;9.886;2022-10-15T07:59:12;16.53;;;14.90;;
13951;SDS011;39535;52.192;9.886;2022-10-15T08:01:40;16.87;;;15.27;;
13951;SDS011;39535;52.192;9.886;2022-10-15T08:04:06;17.50;;;15.90;;
13951;SDS011;39535;52.192;9.886;2022-10-15T08:06:32;17.90;;;16.30;;
13951;SDS011;39535;52.192;9.886;2022-10-15T08:08:59;19.00;;;17.07;;
13951;SDS011;39535;52.192;9.886;2022-10-15T08:11:26;17.73;;;16.33;;
13951;SDS011;39535;52.192;9.886;2022-10-15T08:13:52;17.13;;;15.73;;
13951;SDS011;39535;52.192;9.886;2022-10-15T08:16:18;18.23;;;16.43;;
13951;SDS011;39535;52.192;9.886;2022-10-15T08:18:46;17.33;;;15.93;;
13951;SDS011;39535;52.192;9.886;2022-10-15T08:21:14;17.87;;;16.27;;
13951;SDS011;39535;52.192;9.886;2022-10-15T08:23:41;18.93;;;17.00;;
13951;SDS011;39535;52.192;9.886;2022-10-15T08:26:07;18.87;;;17.10;;
13951;SDS011;39535;52.192;9.886;2022-10-15T08:28:34;19.63;;;17.87;;
13951;SDS011;39535;52.192;9.886;2022-10-15T08:31:01;18.20;;;16.60;;
13951;SDS011;39535;52.192;9.886;2022-10-15T08:33:28;19.20;;;17.40;;
13951;SDS011;39535;52.192;9.886;2022-10-15T08:35:56;17.97;;;16.47;;
13951;SDS011;39535;52.192;9.886;2022-10-15T08:38:23;19.00;;;17.27;;
13951;SDS011;39535;52.192;9.886;2022-10-15T08:40:51;20.40;;;18.70;;
13951;SDS011;39535;52.192;9.886;2022-10-15T08:43:21;18.60;;;17.00;;
13951;SDS011;39535;52.192;9.886;2022-10-15T08:45:50;20.10;;;18.20;;
13951;SDS011;39535;52.192;9.886;2022-10-15T08:48:21;19.87;;;18.07;;
13951;SDS011;39535;52.192;9.886;2022-10-15T08:50:54;19.53;;;17.83;;
13951;SDS011;39535;52.192;9.886;2022-10-15T08:53:26;18.60;;;16.97;;
13951;SDS011;39535;52.192;9.886;2022-10-15T08:55:54;17.70;;;16.30;;
13951;SDS011;39535;52.192;9.886;2022-10-15T08:58:27;20.17;;;18.27;;
13951;SDS011;39535;52.192;9.886;2022-10-15T09:01:02;19.93;;;18.23;;
13951;SDS011;39535;52.192;9.886;2022-10-15T09:03:33;17.07;;;15.67;;
13951;SDS011;39535;52.192;9.886;2022-10-15T09:06:08;17.17;;;15.77;;
13951;SDS011;39535;52.192;9.886;2022-10-15T09:08:41;17.47;;;15.90;;
13951;SDS011;39535;52.192;9.886;2022-10-15T09:11:18;17.47;;;15.63;;
13951;SDS011;39535;52.192;9.886;2022-10-15T09:13:53;16.80;;;15.20;;
13951;SDS011;39535;52.192;9.886;2022-10-15T09:16:20;17.10;;;15.63;;
13951;SDS011;39535;52.192;9.886;2022-10-15T09:18:50;15.03;;;13.83;;
13951;SDS011;39535;52.192;9.886;2022-10-15T09:21:20;14.97;;;13.70;;
13951;SDS011;39535;52.192;9.886;2022-10-15T09:23:49;15.67;;;14.37;;
13951;SDS011;39535;52.192;9.886;2022-10-15T09:26:19;15.50;;;14.30;;
13951;SDS011;39535;52.192;9.886;2022-10-15T09:28:52;16.30;;;14.90;;
13951;SDS011;39535;52.192;9.886;2022-10-15T09:31:27;15.17;;;13.90;;
13951;SDS011;39535;52.192;9.886;2022-10-15T09:33:58;14.40;;;13.10;;
13951;SDS011;39535;52.192;9.886;2022-10-15T09:36:35;14.43;;;13.23;;
13951;SDS011;39535;52.192;9.886;2022-10-15T09:39:11;14.80;;;13.60;;
13951;SDS011;39535;52.192;9.886;2022-10-15T09:41:56;13.20;;;12.10;;
13951;SDS011;39535;52.192;9.886;2022-10-15T09:44:36;13.60;;;12.60;;
13951;SDS011;39535;52.192;9.886;2022-10-15T09:47:13;12.23;;;11.23;;
13951;SDS011;39535;52.192;9.886;2022-10-15T09:49:41;13.30;;;12.20;;
13951;SDS011;39535;52.192;9.886;2022-10-15T09:52:10;10.63;;;9.73;;
13951;SDS011;39535;52.192;9.886;2022-10-15T09:54:44;9.60;;;8.90;;
13951;SDS011;39535;52.192;9.886;2022-10-15T09:57:19;9.87;;;9.07;;
13951;SDS011;39535;52.192;9.886;2022-10-15T09:59:51;10.83;;;9.83;;
13951;SDS011;39535;52.192;9.886;2022-10-15T10:02:20;10.60;;;9.90;;
13951;SDS011;39535;52.192;9.886;2022-10-15T10:04:47;11.33;;;10.50;;
13951;SDS011;39535;52.192;9.886;2022-10-15T10:07:31;11.67;;;10.67;;
13951;SDS011;39535;52.192;9.886;2022-10-15T10:10:01;11.37;;;10.40;;
13951;SDS011;39535;52.192;9.886;2022-10-15T10:12:30;11.30;;;10.43;;
13951;SDS011;39535;52.192;9.886;2022-10-15T10:14:59;11.03;;;10.13;;
13951;SDS011;39535;52.192;9.886;2022-10-15T10:17:29;10.50;;;9.70;;
13951;SDS011;39535;52.192;9.886;2022-10-15T10:20:13;12.20;;;11.30;;
13951;SDS011;39535;52.192;9.886;2022-10-15T10:22:45;11.60;;;10.70;;
13951;SDS011;39535;52.192;9.886;2022-10-15T10:25:22;11.63;;;10.67;;
13951;SDS011;39535;52.192;9.886;2022-10-15T10:27:54;12.23;;;11.23;;
13951;SDS011;39535;52.192;9.886;2022-10-15T10:30:22;11.90;;;11.00;;
13951;SDS011;39535;52.192;9.886;2022-10-15T10:32:53;11.63;;;10.73;;
13951;SDS011;39535;52.192;9.886;2022-10-15T10:35:22;10.03;;;9.23;;
13951;SDS011;39535;52.192;9.886;2022-10-15T10:37:51;11.43;;;10.53;;
13951;SDS011;39535;52.192;9.886;2022-10-15T10:40:21;11.73;;;10.73;;
13951;SDS011;39535;52.192;9.886;2022-10-15T10:43:08;11.50;;;10.63;;
13951;SDS011;39535;52.192;9.886;2022-10-15T10:45:36;11.00;;;10.10;;
13951;SDS011;39535;52.192;9.886;2022-10-15T10:48:16;10.17;;;9.37;;
13951;SDS011;39535;52.192;9.886;2022-10-15T10:50:44;8.50;;;7.90;;
13951;SDS011;39535;52.192;9.886;2022-10-15T10:53:15;9.53;;;8.50;;
13951;SDS011;39535;52.192;9.886;2022-10-15T10:55:46;8.13;;;7.63;;
13951;SDS011;39535;52.192;9.886;2022-10-15T10:58:16;7.23;;;6.73;;
13951;SDS011;39535;52.192;9.886;2022-10-15T11:00:45;8.17;;;7.57;;
13951;SDS011;39535;52.192;9.886;2022-10-15T11:03:19;7.60;;;7.10;;
13951;SDS011;39535;52.192;9.886;2022-10-15T11:05:54;5.80;;;5.40;;
13951;SDS011;39535;52.192;9.886;2022-10-15T11:08:28;5.63;;;5.23;;
13951;SDS011;39535;52.192;9.886;2022-10-15T11:11:03;5.80;;;5.40;;
13951;SDS011;39535;52.192;9.886;2022-10-15T11:13:43;5.73;;;5.33;;
13951;SDS011;39535;52.192;9.886;2022-10-15T11:16:21;5.90;;;5.50;;
13951;SDS011;39535;52.192;9.886;2022-10-15T11:18:59;5.57;;;5.17;;
13951;SDS011;39535;52.192;9.886;2022-10-15T11:21:37;5.50;;;5.10;;
13951;SDS011;39535;52.192;9.886;2022-10-15T11:24:18;5.93;;;5.53;;
13951;SDS011;39535;52.192;9.886;2022-10-15T11:26:54;5.47;;;5.07;;
13951;SDS011;39535;52.192;9.886;2022-10-15T11:29:30;4.93;;;4.53;;
13951;SDS011;39535;52.192;9.886;2022-10-15T11:32:07;4.73;;;4.37;;
13951;SDS011;39535;52.192;9.886;2022-10-15T11:34:43;4.80;;;4.50;;
13951;SDS011;39535;52.192;9.886;2022-10-15T11:37:28;4.67;;;4.37;;
13951;SDS011;39535;52.192;9.886;2022-10-15T11:40:18;4.37;;;4.10;;
13951;SDS011;39535;52.192;9.886;2022-10-15T11:42:49;4.50;;;4.20;;
13951;SDS011;39535;52.192;9.886;2022-10-15T11:45:27;3.97;;;3.77;;
13951;SDS011;39535;52.192;9.886;2022-10-15T11:48:03;4.50;;;4.20;;
13951;SDS011;39535;52.192;9.886;2022-10-15T11:50:38;3.93;;;3.70;;
13951;SDS011;39535;52.192;9.886;2022-10-15T11:53:29;3.90;;;3.70;;
13951;SDS011;39535;52.192;9.886;2022-10-15T11:56:12;4.10;;;3.73;;
13951;SDS011;39535;52.192;9.886;2022-10-15T11:58:42;3.47;;;3.27;;
13951;SDS011;39535;52.192;9.886;2022-10-15T12:01:14;4.60;;;3.70;;
13951;SDS011;39535;52.192;9.886;2022-10-15T12:03:48;3.43;;;3.23;;
13951;SDS011;39535;52.192;9.886;2022-10-15T12:06:19;3.23;;;3.00;;
13951;SDS011;39535;52.192;9.886;2022-10-15T12:08:47;3.20;;;3.00;;
13951;SDS011;39535;52.192;9.886;2022-10-15T12:11:19;2.57;;;2.47;;
13951;SDS011;39535;52.192;9.886;2022-10-15T12:13:53;2.80;;;2.50;;
13951;SDS011;39535;52.192;9.886;2022-10-15T12:16:27;2.90;;;2.70;;
13951;SDS011;39535;52.192;9.886;2022-10-15T12:19:00;2.50;;;2.40;;
13951;SDS011;39535;52.192;9.886;2022-10-15T12:21:36;2.47;;;2.27;;
13951;SDS011;39535;52.192;9.886;2022-10-15T12:24:07;2.97;;;2.80;;
13951;SDS011;39535;52.192;9.886;2022-10-15T12:27:18;3.53;;;3.33;;
13951;SDS011;39535;52.192;9.886;2022-10-15T12:29:47;2.77;;;2.67;;
13951;SDS011;39535;52.192;9.886;2022-10-15T12:32:20;3.03;;;2.87;;
13951;SDS011;39535;52.192;9.886;2022-10-15T12:34:52;2.80;;;2.60;;
13951;SDS011;39535;52.192;9.886;2022-10-15T12:37:19;2.60;;;2.50;;
13951;SDS011;39535;52.192;9.886;2022-10-15T12:39:53;3.97;;;2.73;;
13951;SDS011;39535;52.192;9.886;2022-10-15T12:42:22;2.70;;;2.50;;
13951;SDS011;39535;52.192;9.886;2022-10-15T12:44:51;2.30;;;2.20;;
13951;SDS011;39535;52.192;9.886;2022-10-15T12:50:15;3.20;;;3.00;;
13951;SDS011;39535;52.192;9.886;2022-10-15T12:52:50;3.47;;;3.27;;
13951;SDS011;39535;52.192;9.886;2022-10-15T12:55:26;3.10;;;2.90;;
13951;SDS011;39535;52.192;9.886;2022-10-15T12:58:03;2.97;;;2.77;;
13951;SDS011;39535;52.192;9.886;2022-10-15T13:00:35;2.60;;;2.50;;
13951;SDS011;39535;52.192;9.886;2022-10-15T13:03:07;3.20;;;3.00;;
13951;SDS011;39535;52.192;9.886;2022-10-15T13:05:39;2.87;;;2.67;;
13951;SDS011;39535;52.192;9.886;2022-10-15T13:08:10;3.20;;;3.00;;
13951;SDS011;39535;52.192;9.886;2022-10-15T13:10:40;2.73;;;2.33;;
13951;SDS011;39535;52.192;9.886;2022-10-15T13:13:15;2.80;;;2.60;;
13951;SDS011;39535;52.192;9.886;2022-10-15T13:15:48;2.73;;;2.53;;
13951;SDS011;39535;52.192;9.886;2022-10-15T13:18:16;3.10;;;2.90;;
13951;SDS011;39535;52.192;9.886;2022-10-15T13:20:43;2.80;;;2.60;;
13951;SDS011;39535;52.192;9.886;2022-10-15T13:23:15;2.17;;;2.07;;
13951;SDS011;39535;52.192;9.886;2022-10-15T13:25:45;2.30;;;2.10;;
13951;SDS011;39535;52.192;9.886;2022-10-15T13:28:32;2.00;;;1.90;;
13951;SDS011;39535;52.192;9.886;2022-10-15T13:31:01;2.00;;;1.83;;
13951;SDS011;39535;52.192;9.886;2022-10-15T13:33:30;1.87;;;1.77;;
13951;SDS011;39535;52.192;9.886;2022-10-15T13:36:03;1.30;;;1.20;;
13951;SDS011;39535;52.192;9.886;2022-10-15T13:38:30;1.03;;;1.03;;
13951;SDS011;39535;52.192;9.886;2022-10-15T13:40:58;2.30;;;1.20;;
13951;SDS011;39535;52.192;9.886;2022-10-15T13:43:25;1.57;;;1.47;;
13951;SDS011;39535;52.192;9.886;2022-10-15T13:45:54;1.60;;;1.50;;
13951;SDS011;39535;52.192;9.886;2022-10-15T13:48:23;1.83;;;1.00;;
13951;SDS011;39535;52.192;9.886;2022-10-15T13:50:51;1.10;;;1.00;;
13951;SDS011;39535;52.192;9.886;2022-10-15T13:53:21;1.47;;;0.80;;
13951;SDS011;39535;52.192;9.886;2022-10-15T13:55:52;1.00;;;1.00;;
13951;SDS011;39535;52.192;9.886;2022-10-15T13:58:21;0.90;;;0.90;;
13951;SDS011;39535;52.192;9.886;2022-10-15T14:00:50;1.07;;;1.00;;
13951;SDS011;39535;52.192;9.886;2022-10-15T14:03:22;1.13;;;0.90;;
13951;SDS011;39535;52.192;9.886;2022-10-15T14:05:51;1.27;;;0.80;;
13951;SDS011;39535;52.192;9.886;2022-10-15T14:08:21;0.80;;;0.80;;
13951;SDS011;39535;52.192;9.886;2022-10-15T14:10:50;1.37;;;0.90;;
13951;SDS011;39535;52.192;9.886;2022-10-15T14:13:18;1.37;;;0.60;;
13951;SDS011;39535;52.192;9.886;2022-10-15T14:15:50;0.70;;;0.70;;
13951;SDS011;39535;52.192;9.886;2022-10-15T14:18:26;0.87;;;0.50;;
13951;SDS011;39535;52.192;9.886;2022-10-15T14:20:56;1.23;;;0.60;;
13951;SDS011;39535;52.192;9.886;2022-10-15T14:23:24;2.43;;;0.60;;
13951;SDS011;39535;52.192;9.886;2022-10-15T14:25:56;0.50;;;0.50;;
13951;SDS011;39535;52.192;9.886;2022-10-15T14:28:25;0.63;;;0.63;;
13951;SDS011;39535;52.192;9.886;2022-10-15T14:30:54;0.80;;;0.50;;
13951;SDS011;39535;52.192;9.886;2022-10-15T14:33:29;0.47;;;0.47;;
13951;SDS011;39535;52.192;9.886;2022-10-15T14:36:05;0.73;;;0.50;;
13951;SDS011;39535;52.192;9.886;2022-10-15T14:38:34;0.40;;;0.40;;
13951;SDS011;39535;52.192;9.886;2022-10-15T14:41:01;0.40;;;0.40;;
13951;SDS011;39535;52.192;9.886;2022-10-15T14:43:31;0.50;;;0.50;;
13951;SDS011;39535;52.192;9.886;2022-10-15T14:46:00;0.40;;;0.40;;
13951;SDS011;39535;52.192;9.886;2022-10-15T14:48:30;1.63;;;0.50;;
13951;SDS011;39535;52.192;9.886;2022-10-15T14:50:59;1.23;;;0.53;;
13951;SDS011;39535;52.192;9.886;2022-10-15T14:53:29;2.83;;;1.90;;
13951;SDS011;39535;52.192;9.886;2022-10-15T14:56:01;1.30;;;1.30;;
13951;SDS011;39535;52.192;9.886;2022-10-15T14:58:31;1.97;;;0.80;;
13951;SDS011;39535;52.192;9.886;2022-10-15T15:00:58;0.30;;;0.30;;
13951;SDS011;39535;52.192;9.886;2022-10-15T15:03:28;1.60;;;0.60;;